createdAt,value
2022-10-22T00:00:08.583Z,98.63
2022-10-22T00:01:08.779Z,98.63
2022-10-22T00:02:06.868Z,98.74
2022-10-22T00:03:08.127Z,98.84
2022-10-22T00:04:09.367Z,99.04
2022-10-22T00:05:09.527Z,99.24
2022-10-22T00:06:06.596Z,99.44
2022-10-22T00:07:09.907Z,99.44
2022-10-22T00:08:06.992Z,99.55
2022-10-22T00:09:08.275Z,99.65
2022-10-22T00:10:09.458Z,99.75
2022-10-22T00:11:06.511Z,99.75
2022-10-22T00:12:09.776Z,99.65
2022-10-22T00:13:08.917Z,99.65
2022-10-22T00:14:07.020Z,99.55
2022-10-22T00:15:09.277Z,99.55
2022-10-22T00:16:09.491Z,99.44
2022-10-22T00:17:10.545Z,99.35
2022-10-22T00:18:09.815Z,99.35
2022-10-22T00:19:07.120Z,99.14
2022-10-22T00:20:09.097Z,99.14
2022-10-22T00:21:11.429Z,99.14
2022-10-22T00:22:09.460Z,99.24
2022-10-22T00:23:06.531Z,99.24
2022-10-22T00:24:09.815Z,99.35
2022-10-22T00:25:06.898Z,99.35
2022-10-22T00:26:08.113Z,99.44
2022-10-22T00:27:08.422Z,99.65
2022-10-22T00:28:06.391Z,99.75
2022-10-22T00:29:08.664Z,99.75
2022-10-22T00:30:06.770Z,99.85
2022-10-22T00:31:09.020Z,99.95
2022-10-22T00:32:08.164Z,99.99
2022-10-22T00:33:08.347Z,99.99
2022-10-22T00:34:08.522Z,99.99
2022-10-22T00:35:06.625Z,99.99
2022-10-22T00:36:08.896Z,99.99
2022-10-22T00:37:08.031Z,99.99
2022-10-22T00:38:06.800Z,99.99
2022-10-22T00:39:10.471Z,99.99
2022-10-22T00:40:08.592Z,99.99
2022-10-22T00:41:06.694Z,99.99
2022-10-22T00:42:07.922Z,99.99
2022-10-22T00:43:09.134Z,99.99
2022-10-22T00:44:09.323Z,99.99
2022-10-22T00:45:09.488Z,99.99
2022-10-22T00:46:06.551Z,99.99
2022-10-22T00:47:09.853Z,99.99
2022-10-22T00:48:05.831Z,99.99
2022-10-22T00:49:07.011Z,99.99
2022-10-22T00:50:06.310Z,99.99
2022-10-22T00:51:07.244Z,99.99
2022-10-22T00:52:06.460Z,99.99
2022-10-22T00:53:06.760Z,99.99
2022-10-22T00:54:06.793Z,99.99
2022-10-22T00:55:05.933Z,99.99
2022-10-22T00:56:07.197Z,99.99
2022-10-22T00:57:07.320Z,99.99
2022-10-22T00:58:07.732Z,99.99
2022-10-22T01:00:06.803Z,99.99
2022-10-22T01:01:05.972Z,99.99
2022-10-22T01:02:07.188Z,99.99
2022-10-22T01:03:07.355Z,99.99
2022-10-22T01:04:06.456Z,99.99
2022-10-22T01:05:12.935Z,99.99
2022-10-22T01:06:05.829Z,99.99
2022-10-22T01:07:07.009Z,99.99
2022-10-22T01:08:06.174Z,99.95
2022-10-22T01:09:07.454Z,99.99
2022-10-22T01:10:05.455Z,99.99
2022-10-22T01:11:05.629Z,99.99
2022-10-22T01:12:05.807Z,99.99
2022-10-22T01:13:05.975Z,99.99
2022-10-22T01:14:07.197Z,99.99
2022-10-22T01:15:06.347Z,99.99
2022-10-22T01:16:05.483Z,99.99
2022-10-22T01:17:06.607Z,99.99
2022-10-22T01:18:05.821Z,99.99
2022-10-22T01:19:05.988Z,99.99
2022-10-22T01:20:06.167Z,99.99
2022-10-22T01:21:06.713Z,99.99
2022-10-22T01:22:05.442Z,99.99
2022-10-22T01:23:05.614Z,99.99
2022-10-22T01:24:05.767Z,99.99
2022-10-22T01:25:05.907Z,99.99
2022-10-22T01:26:06.077Z,99.99
2022-10-22T01:27:07.359Z,99.99
2022-10-22T01:28:07.461Z,99.99
2022-10-22T01:29:07.600Z,99.99
2022-10-22T01:30:05.723Z,99.99
2022-10-22T01:31:06.899Z,99.99
2022-10-22T01:32:07.072Z,99.99
2022-10-22T01:33:06.304Z,99.99
2022-10-22T01:34:06.383Z,99.99
2022-10-22T01:35:06.551Z,99.99
2022-10-22T01:36:05.679Z,99.99
2022-10-22T01:37:06.893Z,99.99
2022-10-22T01:38:07.081Z,99.99
2022-10-22T01:39:07.230Z,99.99
2022-10-22T01:40:06.369Z,99.99
2022-10-22T01:41:07.589Z,99.99
2022-10-22T01:42:06.670Z,99.99
2022-10-22T01:43:05.790Z,99.99
2022-10-22T01:44:06.291Z,99.99
2022-10-22T01:45:07.151Z,99.99
2022-10-22T01:46:05.245Z,99.99
2022-10-22T01:47:06.463Z,99.99
2022-10-22T01:48:07.727Z,99.99
2022-10-22T01:49:05.723Z,99.99
2022-10-22T01:50:07.234Z,99.99
2022-10-22T01:51:08.045Z,99.99
2022-10-22T01:52:07.244Z,99.99
2022-10-22T01:53:07.442Z,99.99
2022-10-22T01:54:07.571Z,99.99
2022-10-22T01:55:06.723Z,99.99
2022-10-22T01:56:07.707Z,99.99
2022-10-22T01:57:07.018Z,99.99
2022-10-22T01:58:05.108Z,99.99
2022-10-22T01:59:07.312Z,99.99
2022-10-22T02:00:05.399Z,99.99
2022-10-22T02:01:05.587Z,99.99
2022-10-22T02:02:06.999Z,99.99
2022-10-22T02:03:05.915Z,99.99
2022-10-22T02:04:06.086Z,99.99
2022-10-22T02:05:05.220Z,99.99
2022-10-22T02:06:05.413Z,99.99
2022-10-22T02:07:05.575Z,99.99
2022-10-22T02:08:06.339Z,99.99
2022-10-22T02:09:04.951Z,99.99
2022-10-22T02:10:06.005Z,99.99
2022-10-22T02:11:05.227Z,99.99
2022-10-22T02:13:06.303Z,99.99
2022-10-22T02:14:06.697Z,99.99
2022-10-22T02:15:04.896Z,99.99
2022-10-22T02:16:06.109Z,99.99
2022-10-22T02:17:05.235Z,99.99
2022-10-22T02:18:05.420Z,99.99
2022-10-22T02:19:06.307Z,99.99
2022-10-22T02:20:04.715Z,99.99
2022-10-22T02:21:05.954Z,99.99
2022-10-22T02:22:05.026Z,99.99
2022-10-22T02:23:06.233Z,99.99
2022-10-22T02:24:05.365Z,99.99
2022-10-22T02:25:06.298Z,99.99
2022-10-22T02:26:04.644Z,99.99
2022-10-22T02:27:05.849Z,99.99
2022-10-22T02:28:04.953Z,99.99
2022-10-22T02:29:06.155Z,99.99
2022-10-22T02:30:05.407Z,99.99
2022-10-22T02:31:06.787Z,99.99
2022-10-22T02:32:05.617Z,99.99
2022-10-22T02:33:04.871Z,99.99
2022-10-22T02:34:05.945Z,99.99
2022-10-22T02:35:05.057Z,99.99
2022-10-22T02:36:05.204Z,99.99
2022-10-22T02:37:06.740Z,99.99
2022-10-22T02:38:04.509Z,99.99
2022-10-22T02:39:05.725Z,99.99
2022-10-22T02:40:05.856Z,99.99
2022-10-22T02:41:05.995Z,99.99
2022-10-22T02:42:06.160Z,99.99
2022-10-22T02:43:04.295Z,99.99
2022-10-22T02:44:05.421Z,99.99
2022-10-22T02:45:05.591Z,99.99
2022-10-22T02:46:04.702Z,99.99
2022-10-22T02:47:04.863Z,99.99
2022-10-22T02:48:06.800Z,99.99
2022-10-22T02:49:05.212Z,99.99
2022-10-22T02:50:07.946Z,99.99
2022-10-22T02:51:05.550Z,99.99
2022-10-22T02:52:05.750Z,99.99
2022-10-22T02:53:05.032Z,99.99
2022-10-22T02:54:06.753Z,99.99
2022-10-22T02:55:04.175Z,99.99
2022-10-22T02:56:04.314Z,99.99
2022-10-22T02:57:05.532Z,99.99
2022-10-22T02:58:05.691Z,99.99
2022-10-22T02:59:04.840Z,99.99
2022-10-22T03:00:04.112Z,99.99
2022-10-22T03:01:04.270Z,99.99
2022-10-22T03:02:04.344Z,99.99
2022-10-22T03:03:05.608Z,99.99
2022-10-22T03:04:04.691Z,99.99
2022-10-22T03:05:06.393Z,99.99
2022-10-22T03:06:06.096Z,99.99
2022-10-22T03:07:06.265Z,99.99
2022-10-22T03:08:04.383Z,99.99
2022-10-22T03:09:04.618Z,99.99
2022-10-22T03:10:04.741Z,99.99
2022-10-22T03:11:03.888Z,99.99
2022-10-22T03:12:04.023Z,99.99
2022-10-22T03:13:04.247Z,99.99
2022-10-22T03:14:04.369Z,99.99
2022-10-22T03:15:04.521Z,99.99
2022-10-22T03:16:06.762Z,99.99
2022-10-22T03:17:03.798Z,99.99
2022-10-22T03:18:04.229Z,99.99
2022-10-22T03:19:06.183Z,99.99
2022-10-22T03:20:05.313Z,99.99
2022-10-22T03:21:05.495Z,99.99
2022-10-22T03:22:07.645Z,99.99
2022-10-22T03:23:03.772Z,99.99
2022-10-22T03:24:07.066Z,99.99
2022-10-22T03:25:04.126Z,99.99
2022-10-22T03:26:04.320Z,99.99
2022-10-22T03:27:04.487Z,99.99
2022-10-22T03:28:04.042Z,99.99
2022-10-22T03:29:03.818Z,99.99
2022-10-22T03:30:04.025Z,99.99
2022-10-22T03:31:04.186Z,99.99
2022-10-22T03:32:04.373Z,99.99
2022-10-22T03:33:07.529Z,99.99
2022-10-22T03:34:03.673Z,99.99
2022-10-22T03:35:03.818Z,99.99
2022-10-22T03:36:03.995Z,99.99
2022-10-22T03:37:04.159Z,99.99
2022-10-22T03:38:04.521Z,99.99
2022-10-22T03:39:03.539Z,99.99
2022-10-22T03:40:03.659Z,99.99
2022-10-22T03:41:03.916Z,99.99
2022-10-22T03:42:03.979Z,99.99
2022-10-22T03:43:04.177Z,99.99
2022-10-22T03:44:06.328Z,99.99
2022-10-22T03:45:03.479Z,99.99
2022-10-22T03:46:03.668Z,99.99
2022-10-22T03:47:03.829Z,99.99
2022-10-22T03:48:04.941Z,99.99
2022-10-22T03:49:04.150Z,99.99
2022-10-22T03:50:04.354Z,99.99
2022-10-22T03:51:04.387Z,99.99
2022-10-22T03:52:03.618Z,99.99
2022-10-22T03:53:03.794Z,99.99
2022-10-22T03:54:04.457Z,99.99
2022-10-22T03:55:04.189Z,99.99
2022-10-22T03:56:03.437Z,99.99
2022-10-22T03:57:03.529Z,99.99
2022-10-22T03:58:03.755Z,99.99
2022-10-22T03:59:03.947Z,99.99
2022-10-22T04:00:04.121Z,99.99
2022-10-22T04:01:03.274Z,99.99
2022-10-22T04:02:03.524Z,99.99
2022-10-22T04:03:03.229Z,99.99
2022-10-22T04:04:03.379Z,99.99
2022-10-22T04:05:03.616Z,99.99
2022-10-22T04:06:03.704Z,99.99
2022-10-22T04:07:03.872Z,99.99
2022-10-22T04:08:04.114Z,99.99
2022-10-22T04:09:03.174Z,99.99
2022-10-22T04:10:03.295Z,99.99
2022-10-22T04:11:03.467Z,99.99
2022-10-22T04:12:03.623Z,99.99
2022-10-22T04:13:04.765Z,99.99
2022-10-22T04:14:03.961Z,99.99
2022-10-22T04:15:03.069Z,99.99
2022-10-22T04:16:03.224Z,99.99
2022-10-22T04:17:03.393Z,99.99
2022-10-22T04:18:04.435Z,99.99
2022-10-22T04:19:03.751Z,99.99
2022-10-22T04:20:03.891Z,99.99
2022-10-22T04:21:03.953Z,99.99
2022-10-22T04:22:03.176Z,99.99
2022-10-22T04:23:03.342Z,99.99
2022-10-22T04:24:03.461Z,99.99
2022-10-22T04:25:03.753Z,99.99
2022-10-22T04:26:03.783Z,99.99
2022-10-22T04:27:02.905Z,99.99
2022-10-22T04:28:03.072Z,99.99
2022-10-22T04:29:03.265Z,99.99
2022-10-22T04:30:03.428Z,99.99
2022-10-22T04:31:03.605Z,99.99
2022-10-22T04:32:04.702Z,99.99
2022-10-22T04:33:02.870Z,99.99
2022-10-22T04:34:04.093Z,99.99
2022-10-22T04:35:03.232Z,99.99
2022-10-22T04:36:03.422Z,99.99
2022-10-22T04:37:03.693Z,99.99
2022-10-22T04:38:02.883Z,99.99
2022-10-22T04:39:02.925Z,99.99
2022-10-22T04:40:03.085Z,99.99
2022-10-22T04:41:03.285Z,99.99
2022-10-22T04:42:03.430Z,99.99
2022-10-22T04:43:04.688Z,99.99
2022-10-22T04:44:02.755Z,99.99
2022-10-22T04:45:02.897Z,99.99
2022-10-22T04:46:03.082Z,99.99
2022-10-22T04:47:03.259Z,99.99
2022-10-22T04:48:04.386Z,99.99
2022-10-22T04:49:03.606Z,99.99
2022-10-22T04:50:03.755Z,99.99
2022-10-22T04:51:03.934Z,99.99
2022-10-22T04:52:03.065Z,99.99
2022-10-22T04:53:03.408Z,99.99
2022-10-22T04:54:03.464Z,99.99
2022-10-22T04:55:02.678Z,99.99
2022-10-22T04:56:02.823Z,99.99
2022-10-22T04:57:02.996Z,99.99
2022-10-22T04:58:04.164Z,99.99
2022-10-22T04:59:02.363Z,99.99
2022-10-22T05:00:02.551Z,99.99
2022-10-22T05:01:02.832Z,99.99
2022-10-22T05:02:02.931Z,99.99
2022-10-22T05:03:03.128Z,99.99
2022-10-22T05:04:02.299Z,99.99
2022-10-22T05:05:02.457Z,99.99
2022-10-22T05:06:03.861Z,99.99
2022-10-22T05:07:02.867Z,99.99
2022-10-22T05:08:04.085Z,99.99
2022-10-22T05:09:02.269Z,99.99
2022-10-22T05:10:02.399Z,99.99
2022-10-22T05:11:02.603Z,99.99
2022-10-22T05:12:04.217Z,99.99
2022-10-22T05:13:03.332Z,99.99
2022-10-22T05:14:03.310Z,99.99
2022-10-22T05:15:03.423Z,99.99
2022-10-22T05:16:03.600Z,99.99
2022-10-22T05:17:03.767Z,99.99
2022-10-22T05:18:03.940Z,99.99
2022-10-22T05:19:03.101Z,99.99
2022-10-22T05:20:02.244Z,99.99
2022-10-22T05:21:04.389Z,99.99
2022-10-22T05:22:04.584Z,99.99
2022-10-22T05:23:05.285Z,99.99
2022-10-22T05:24:02.966Z,99.99
2022-10-22T05:25:04.173Z,99.99
2022-10-22T05:26:04.351Z,99.99
2022-10-22T05:27:04.594Z,99.99
2022-10-22T05:28:05.139Z,99.99
2022-10-22T05:29:03.894Z,99.99
2022-10-22T05:30:04.024Z,99.99
2022-10-22T05:31:03.152Z,99.99
2022-10-22T05:32:04.350Z,99.99
2022-10-22T05:33:03.511Z,99.99
2022-10-22T05:34:03.671Z,99.99
2022-10-22T05:35:03.859Z,99.99
2022-10-22T05:36:02.944Z,99.99
2022-10-22T05:37:02.107Z,99.99
2022-10-22T05:38:04.272Z,99.99
2022-10-22T05:39:04.453Z,99.99
2022-10-22T05:40:19.594Z,99.99
2022-10-22T05:41:02.738Z,99.99
2022-10-22T05:42:02.972Z,99.99
2022-10-22T05:43:02.106Z,99.99
2022-10-22T05:44:02.293Z,99.99
2022-10-22T05:45:02.473Z,99.99
2022-10-22T05:46:02.671Z,99.99
2022-10-22T05:47:01.821Z,99.99
2022-10-22T05:48:02.936Z,99.99
2022-10-22T05:49:02.090Z,99.99
2022-10-22T05:50:02.283Z,99.99
2022-10-22T05:51:02.486Z,99.99
2022-10-22T05:52:01.677Z,99.99
2022-10-22T05:53:02.145Z,99.99
2022-10-22T05:54:03.087Z,99.99
2022-10-22T05:55:02.243Z,99.99
2022-10-22T05:56:02.433Z,99.99
2022-10-22T05:57:01.613Z,99.99
2022-10-22T05:58:01.830Z,99.99
2022-10-22T06:00:03.235Z,99.99
2022-10-22T06:01:02.432Z,99.99
2022-10-22T06:02:02.648Z,99.99
2022-10-22T06:03:01.820Z,99.99
2022-10-22T06:04:02.050Z,99.99
2022-10-22T06:05:02.223Z,99.99
2022-10-22T06:06:02.427Z,99.99
2022-10-22T06:07:01.585Z,99.99
2022-10-22T06:08:02.901Z,99.99
2022-10-22T06:09:03.217Z,99.99
2022-10-22T06:10:03.235Z,99.99
2022-10-22T06:11:03.456Z,99.99
2022-10-22T06:12:03.649Z,99.99
2022-10-22T06:13:02.826Z,99.99
2022-10-22T06:14:03.045Z,99.99
2022-10-22T06:15:02.232Z,99.99
2022-10-22T06:16:02.436Z,99.99
2022-10-22T06:17:01.621Z,99.99
2022-10-22T06:18:01.814Z,99.99
2022-10-22T06:19:02.125Z,99.99
2022-10-22T06:20:02.287Z,99.99
2022-10-22T06:21:04.239Z,99.99
2022-10-22T06:22:02.611Z,99.99
2022-10-22T06:23:01.771Z,99.98
2022-10-22T06:24:01.955Z,99.98
2022-10-22T06:25:02.273Z,99.99
2022-10-22T06:26:04.327Z,99.99
2022-10-22T06:27:01.519Z,99.99
2022-10-22T06:28:02.741Z,99.99
2022-10-22T06:29:01.906Z,99.99
2022-10-22T06:30:02.088Z,99.99
2022-10-22T06:31:01.238Z,99.99
2022-10-22T06:32:01.441Z,99.99
2022-10-22T06:33:02.567Z,99.99
2022-10-22T06:34:01.837Z,99.99
2022-10-22T06:35:02.021Z,99.99
2022-10-22T06:36:04.044Z,99.99
2022-10-22T06:37:02.369Z,99.99
2022-10-22T06:38:02.551Z,99.99
2022-10-22T06:39:01.797Z,99.99
2022-10-22T06:40:01.967Z,99.99
2022-10-22T06:41:03.199Z,99.99
2022-10-22T06:42:01.329Z,99.99
2022-10-22T06:43:01.539Z,99.99
2022-10-22T06:44:01.741Z,99.99
2022-10-22T06:46:01.121Z,99.99
2022-10-22T06:47:01.351Z,99.99
2022-10-22T06:48:02.517Z,99.99
2022-10-22T06:49:01.787Z,99.99
2022-10-22T06:50:00.914Z,99.99
2022-10-22T06:51:01.140Z,99.99
2022-10-22T06:52:02.289Z,99.99
2022-10-22T06:53:01.600Z,99.99
2022-10-22T06:54:01.726Z,99.99
2022-10-22T06:55:00.863Z,99.99
2022-10-22T06:56:01.083Z,99.99
2022-10-22T06:57:01.345Z,99.99
2022-10-22T06:58:02.431Z,99.99
2022-10-22T06:59:02.646Z,99.99
2022-10-22T07:00:01.855Z,99.99
2022-10-22T07:01:02.169Z,99.99
2022-10-22T07:02:02.312Z,99.99
2022-10-22T07:03:04.304Z,99.99
2022-10-22T07:04:01.605Z,99.99
2022-10-22T07:05:01.805Z,99.99
2022-10-22T07:06:00.960Z,99.99
2022-10-22T07:07:01.142Z,99.99
2022-10-22T07:08:02.483Z,99.99
2022-10-22T07:09:01.615Z,99.99
2022-10-22T07:10:01.666Z,99.99
2022-10-22T07:11:01.838Z,99.99
2022-10-22T07:12:03.024Z,99.99
2022-10-22T07:13:04.106Z,99.99
2022-10-22T07:14:02.383Z,99.99
2022-10-22T07:15:02.523Z,99.99
2022-10-22T07:16:00.646Z,99.99
2022-10-22T07:17:00.853Z,99.99
2022-10-22T07:18:03.121Z,99.99
2022-10-22T07:19:03.395Z,99.99
2022-10-22T07:20:02.447Z,99.99
2022-10-22T07:21:02.646Z,99.99
2022-10-22T07:22:02.729Z,99.99
2022-10-22T07:23:01.974Z,99.99
2022-10-22T07:24:02.159Z,99.99
2022-10-22T07:25:05.253Z,99.99
2022-10-22T07:26:01.447Z,99.99
2022-10-22T07:27:01.653Z,99.99
2022-10-22T07:28:00.799Z,99.99
2022-10-22T07:29:02.034Z,99.99
2022-10-22T07:30:01.148Z,99.99
2022-10-22T07:31:00.335Z,99.99
2022-10-22T07:32:00.485Z,99.99
2022-10-22T07:33:00.658Z,99.99
2022-10-22T07:34:00.825Z,99.99
2022-10-22T07:35:00.999Z,99.99
2022-10-22T07:36:01.154Z,99.99
2022-10-22T07:37:00.295Z,99.99
2022-10-22T07:38:00.442Z,99.99
2022-10-22T07:39:00.670Z,99.99
2022-10-22T07:40:03.762Z,99.99
2022-10-22T07:41:00.979Z,99.99
2022-10-22T07:42:00.999Z,99.99
2022-10-22T07:43:00.727Z,99.99
2022-10-22T07:44:00.885Z,99.99
2022-10-22T07:45:00.822Z,99.99
2022-10-22T07:46:00.978Z,99.99
2022-10-22T07:47:02.108Z,99.99
2022-10-22T07:48:04.819Z,99.99
2022-10-22T07:49:01.068Z,99.99
2022-10-22T07:50:07.949Z,99.99
2022-10-22T07:51:02.091Z,99.99
2022-10-22T07:52:00.917Z,99.99
2022-10-22T07:53:03.101Z,99.99
2022-10-22T07:54:01.346Z,99.99
2022-10-22T07:55:01.338Z,99.99
2022-10-22T07:56:00.479Z,99.99
2022-10-22T07:57:00.655Z,99.99
2022-10-22T07:58:02.859Z,99.99
2022-10-22T08:00:02.134Z,97.61
2022-10-22T08:01:00.318Z,96.39
2022-10-22T08:02:00.361Z,95.48
2022-10-22T08:03:00.609Z,95.38
2022-10-22T08:04:01.792Z,94.93
2022-10-22T08:05:01.851Z,92.90
2022-10-22T08:05:59.934Z,93.00
2022-10-22T08:07:01.130Z,93.46
2022-10-22T08:08:01.279Z,91.94
2022-10-22T08:09:00.470Z,92.25
2022-10-22T08:10:00.613Z,91.85
2022-10-22T08:11:00.705Z,92.14
2022-10-22T08:12:00.862Z,92.14
2022-10-22T08:13:00.425Z,91.03
2022-10-22T08:14:00.566Z,91.34
2022-10-22T08:15:01.780Z,91.13
2022-10-22T08:16:00.891Z,90.83
2022-10-22T08:16:59.944Z,91.24
2022-10-22T08:18:00.954Z,91.44
2022-10-22T08:19:01.089Z,90.73
2022-10-22T08:20:00.214Z,90.58
2022-10-22T08:21:00.356Z,89.67
2022-10-22T08:22:00.506Z,90.08
2022-10-22T08:23:00.585Z,89.26
2022-10-22T08:24:00.754Z,89.77
2022-10-22T08:25:00.875Z,90.28
2022-10-22T08:25:59.993Z,89.87
2022-10-22T08:27:00.162Z,89.06
2022-10-22T08:28:01.413Z,89.26
2022-10-22T08:29:00.479Z,89.26
2022-10-22T08:30:00.573Z,89.17
2022-10-22T08:30:59.691Z,89.98
2022-10-22T08:32:00.927Z,89.98
2022-10-22T08:33:01.053Z,89.37
2022-10-22T08:34:00.173Z,88.31
2022-10-22T08:35:00.310Z,88.92
2022-10-22T08:35:59.643Z,88.62
2022-10-22T08:37:00.760Z,88.31
2022-10-22T08:38:00.807Z,87.91
2022-10-22T08:39:40.335Z,87.97
2022-10-22T08:40:00.035Z,87.97
2022-10-22T08:41:00.216Z,86.85
2022-10-22T08:42:00.389Z,86.35
2022-10-22T08:42:59.469Z,85.54
2022-10-22T08:44:07.309Z,85.33
2022-10-22T08:45:00.814Z,85.33
2022-10-22T08:46:00.976Z,85.44
2022-10-22T08:47:00.091Z,87.36
2022-10-22T08:48:06.465Z,85.74
2022-10-22T08:49:00.497Z,86.51
2022-10-22T08:50:01.637Z,86.00
2022-10-22T08:51:01.715Z,86.21
2022-10-22T08:51:59.826Z,86.31
2022-10-22T08:53:02.091Z,85.60
2022-10-22T08:54:02.126Z,86.31
2022-10-22T08:55:01.219Z,85.80
2022-10-22T08:55:59.329Z,86.51
2022-10-22T08:56:59.459Z,85.60
2022-10-22T08:58:00.607Z,85.36
2022-10-22T08:59:00.784Z,85.05
2022-10-22T09:00:00.898Z,85.16
2022-10-22T09:01:01.070Z,84.75
2022-10-22T09:02:00.199Z,85.16
2022-10-22T09:02:59.273Z,84.45
2022-10-22T09:03:59.437Z,84.75
2022-10-22T09:04:59.584Z,85.56
2022-10-22T09:05:59.770Z,84.75
2022-10-22T09:06:59.950Z,85.22
2022-10-22T09:07:59.019Z,83.50
2022-10-22T09:08:59.248Z,84.31
2022-10-22T09:10:02.421Z,83.09
2022-10-22T09:10:59.434Z,84.11
2022-10-22T09:11:59.558Z,84.87
2022-10-22T09:13:01.010Z,82.55
2022-10-22T09:14:00.935Z,83.96
2022-10-22T09:15:01.061Z,82.75
2022-10-22T09:16:00.139Z,83.26
2022-10-22T09:16:59.250Z,82.75
2022-10-22T09:17:59.360Z,85.84
2022-10-22T09:19:00.778Z,84.06
2022-10-22T09:19:59.663Z,84.17
2022-10-22T09:20:59.781Z,82.65
2022-10-22T09:22:02.734Z,82.45
2022-10-22T09:23:00.194Z,82.28
2022-10-22T09:24:00.295Z,83.29
2022-10-22T09:24:59.433Z,83.90
2022-10-22T09:26:00.582Z,83.80
2022-10-22T09:26:59.710Z,83.40
2022-10-22T09:27:58.826Z,84.25
2022-10-22T09:28:59.977Z,84.75
2022-10-22T09:29:59.097Z,84.14
2022-10-22T09:31:00.324Z,83.64
2022-10-22T09:31:59.379Z,87.08
2022-10-22T09:32:59.537Z,85.76
2022-10-22T09:33:58.666Z,85.25
2022-10-22T09:34:59.813Z,85.50
2022-10-22T09:35:58.944Z,85.90
2022-10-22T09:36:59.124Z,85.70
2022-10-22T09:38:00.303Z,86.51
2022-10-22T09:39:00.472Z,85.50
2022-10-22T09:40:00.625Z,86.00
2022-10-22T09:41:00.745Z,87.12
2022-10-22T09:42:00.977Z,85.10
2022-10-22T09:43:00.075Z,85.30
2022-10-22T09:43:59.162Z,85.80
2022-10-22T09:45:00.415Z,87.22
2022-10-22T09:46:00.513Z,85.39
2022-10-22T09:47:00.683Z,85.30
2022-10-22T09:48:26.930Z,87.12
2022-10-22T09:48:58.888Z,86.00
2022-10-22T09:49:59.054Z,86.00
2022-10-22T09:50:59.185Z,85.90
2022-10-22T09:51:59.356Z,85.80
2022-10-22T09:52:59.491Z,87.12
2022-10-22T09:53:58.635Z,86.31
2022-10-22T09:55:00.831Z,87.02
2022-10-22T09:55:58.964Z,87.42
2022-10-22T09:56:59.083Z,86.00
2022-10-22T09:57:59.259Z,85.46
2022-10-22T09:58:59.487Z,86.07
2022-10-22T09:59:59.547Z,85.96
2022-10-22T10:00:59.700Z,84.85
2022-10-22T10:02:13.365Z,86.37
2022-10-22T10:03:00.012Z,84.95
2022-10-22T10:04:00.150Z,85.05
2022-10-22T10:04:59.268Z,85.76
2022-10-22T10:06:04.693Z,84.55
2022-10-22T10:06:59.502Z,84.45
2022-10-22T10:07:59.693Z,85.46
2022-10-22T10:08:58.864Z,86.16
2022-10-22T10:09:58.987Z,85.05
2022-10-22T10:11:48.857Z,83.33
2022-10-22T10:11:58.200Z,83.94
2022-10-22T10:12:58.350Z,83.80
2022-10-22T10:13:59.552Z,83.70
2022-10-22T10:14:58.619Z,83.60
2022-10-22T10:16:02.935Z,83.70
2022-10-22T10:16:58.917Z,84.31
2022-10-22T10:17:59.057Z,84.51
2022-10-22T10:18:59.219Z,83.40
2022-10-22T10:20:02.910Z,82.89
2022-10-22T10:20:59.570Z,82.99
2022-10-22T10:22:00.247Z,83.40
2022-10-22T10:22:59.779Z,84.81
2022-10-22T10:23:58.895Z,82.99
2022-10-22T10:24:58.007Z,83.19
2022-10-22T10:25:59.198Z,84.97
2022-10-22T10:27:00.465Z,83.86
2022-10-22T10:28:05.748Z,83.26
2022-10-22T10:28:58.604Z,82.65
2022-10-22T10:29:58.751Z,83.26
2022-10-22T10:31:00.931Z,83.15
2022-10-22T10:32:00.090Z,83.26
2022-10-22T10:33:00.249Z,82.55
2022-10-22T10:33:58.303Z,81.70
2022-10-22T10:34:59.484Z,82.21
2022-10-22T10:36:00.659Z,81.50
2022-10-22T10:36:58.767Z,82.10
2022-10-22T10:37:59.924Z,81.70
2022-10-22T10:39:00.192Z,82.81
2022-10-22T10:39:58.182Z,80.99
2022-10-22T10:40:58.353Z,81.90
2022-10-22T10:41:58.496Z,82.21
2022-10-22T10:42:58.639Z,81.20
2022-10-22T10:43:57.774Z,81.60
2022-10-22T10:44:57.895Z,81.30
2022-10-22T10:45:58.037Z,80.73
2022-10-22T10:46:59.217Z,82.61
2022-10-22T10:48:00.411Z,81.74
2022-10-22T10:48:59.526Z,81.94
2022-10-22T10:49:59.685Z,80.99
2022-10-22T10:51:00.787Z,81.90
2022-10-22T10:51:59.937Z,82.01
2022-10-22T10:52:57.929Z,81.30
2022-10-22T10:53:58.068Z,80.93
2022-10-22T10:54:58.223Z,80.83
2022-10-22T10:55:58.372Z,80.63
2022-10-22T10:56:59.501Z,80.32
2022-10-22T10:57:58.852Z,80.83
2022-10-22T10:58:57.715Z,80.93
2022-10-22T10:59:57.859Z,81.13
2022-10-22T11:00:57.977Z,81.13
2022-10-22T11:01:58.171Z,80.83
2022-10-22T11:02:58.291Z,81.03
2022-10-22T11:03:58.435Z,81.44
2022-10-22T11:04:57.540Z,81.23
2022-10-22T11:05:57.720Z,82.24
2022-10-22T11:07:10.827Z,82.14
2022-10-22T11:07:59.374Z,80.83
2022-10-22T11:08:59.296Z,80.53
2022-10-22T11:09:59.335Z,82.04
2022-10-22T11:10:57.421Z,82.14
2022-10-22T11:11:58.606Z,81.84
2022-10-22T11:12:58.769Z,82.04
2022-10-22T11:13:57.827Z,82.14
2022-10-22T11:14:59.031Z,83.26
2022-10-22T11:15:58.137Z,83.26
2022-10-22T11:16:58.269Z,83.26
2022-10-22T11:17:59.547Z,83.46
2022-10-22T11:18:58.509Z,81.84
2022-10-22T11:19:59.901Z,82.04
2022-10-22T11:20:58.836Z,81.44
2022-10-22T11:21:59.935Z,83.15
2022-10-22T11:23:18.029Z,82.04
2022-10-22T11:23:58.419Z,82.65
2022-10-22T11:24:59.415Z,82.41
2022-10-22T11:25:57.259Z,81.60
2022-10-22T11:27:31.627Z,82.10
2022-10-22T11:28:04.518Z,81.70
2022-10-22T11:28:58.730Z,82.41
2022-10-22T11:29:58.928Z,83.07
2022-10-22T11:30:59.162Z,82.67
2022-10-22T11:31:57.171Z,80.96
2022-10-22T11:32:59.402Z,81.87
2022-10-22T11:34:04.786Z,82.27
2022-10-22T11:34:58.653Z,81.30
2022-10-22T11:35:57.742Z,81.10
2022-10-22T11:36:57.875Z,81.70
2022-10-22T11:37:58.108Z,81.60
2022-10-22T11:38:57.113Z,82.01
2022-10-22T11:39:57.219Z,82.21
2022-10-22T11:40:58.507Z,82.51
2022-10-22T11:41:59.589Z,82.01
2022-10-22T11:42:57.690Z,80.69
2022-10-22T11:43:57.837Z,82.21
2022-10-22T11:44:57.974Z,81.80
2022-10-22T11:45:57.071Z,81.80
2022-10-22T11:46:57.301Z,81.80
2022-10-22T11:47:58.384Z,81.90
2022-10-22T11:48:58.598Z,81.20
2022-10-22T11:50:04.037Z,81.40
2022-10-22T11:50:58.963Z,81.90
2022-10-22T11:52:04.249Z,81.30
2022-10-22T11:52:58.172Z,81.90
2022-10-22T11:53:58.365Z,81.50
2022-10-22T11:54:57.489Z,82.61
2022-10-22T11:55:58.697Z,81.76
2022-10-22T11:57:03.064Z,80.65
2022-10-22T11:57:58.933Z,81.87
2022-10-22T11:58:56.973Z,81.16
2022-10-22T12:00:11.706Z,81.26
2022-10-22T12:00:58.453Z,82.87
2022-10-22T12:01:57.400Z,81.56
2022-10-22T12:02:59.534Z,83.04
2022-10-22T12:03:57.741Z,82.93
2022-10-22T12:04:57.811Z,82.23
2022-10-22T12:05:56.983Z,81.12
2022-10-22T12:07:30.246Z,81.12
2022-10-22T12:07:57.249Z,79.50
2022-10-22T12:08:57.446Z,80.55
2022-10-22T12:09:59.886Z,81.36
2022-10-22T12:10:57.726Z,81.96
2022-10-22T12:11:56.740Z,80.45
2022-10-22T12:12:58.985Z,81.36
2022-10-22T12:13:57.051Z,81.67
2022-10-22T12:14:59.973Z,82.67
2022-10-22T12:15:57.320Z,82.67
2022-10-22T12:16:57.971Z,81.05
2022-10-22T12:17:58.605Z,81.76
2022-10-22T12:18:58.777Z,81.76
2022-10-22T12:19:58.574Z,78.43
2022-10-22T12:20:58.193Z,78.77
2022-10-22T12:22:03.394Z,79.48
2022-10-22T12:22:59.297Z,79.58
2022-10-22T12:23:56.458Z,80.79
2022-10-22T12:24:57.599Z,78.88
2022-10-22T12:25:56.727Z,79.99
2022-10-22T12:26:56.892Z,77.97
2022-10-22T12:27:58.096Z,78.88
2022-10-22T12:28:58.205Z,78.97
2022-10-22T12:29:57.314Z,77.36
2022-10-22T12:30:56.398Z,77.66
2022-10-22T12:31:56.517Z,77.86
2022-10-22T12:32:57.731Z,78.13
2022-10-22T12:33:57.840Z,79.74
2022-10-22T12:34:59.978Z,79.10
2022-10-22T12:35:57.075Z,79.10
2022-10-22T12:36:57.189Z,78.56
2022-10-22T12:38:03.671Z,78.83
2022-10-22T12:38:57.452Z,77.42
2022-10-22T12:39:58.647Z,78.08
2022-10-22T12:40:56.687Z,75.96
2022-10-22T12:41:56.834Z,76.94
2022-10-22T12:42:57.027Z,77.55
2022-10-22T12:43:57.122Z,75.39
2022-10-22T12:44:57.184Z,74.49
2022-10-22T12:45:56.321Z,74.08
2022-10-22T12:46:57.195Z,74.79
2022-10-22T12:48:11.015Z,74.99
2022-10-22T12:48:56.561Z,74.79
2022-10-22T12:49:56.709Z,74.15
2022-10-22T12:51:03.089Z,72.44
2022-10-22T12:51:56.889Z,73.35
2022-10-22T12:53:11.533Z,72.84
2022-10-22T12:53:56.093Z,73.71
2022-10-22T12:54:57.226Z,75.72
2022-10-22T12:55:56.269Z,74.68
2022-10-22T12:57:01.647Z,73.38